This is the latest recevied weather packets stored in our database for station/object KN6CW-3. If no packets are shown the sender has not sent any weather packets the latest 1 day(s).
| Time | Temp. | Humidity | Pressure | Rain* | Wind** | Luminosity | Snow |
|---|---|---|---|---|---|---|---|
| 1778028587 | 20° C | 51% | 1007.5 hPa | 0 mm | - | 0 W/m² | - |
| 1778028287 | 20° C | 51% | 1007.5 hPa | 0 mm | - | 0 W/m² | - |
| 1778027686 | 20.56° C | 50% | 1007.6 hPa | 0 mm | - | 0 W/m² | - |
| 1778027386 | 20.56° C | 50% | 1007.6 hPa | 0 mm | - | 0 W/m² | - |
| 1778027086 | 20.56° C | 49% | 1007.5 hPa | 0 mm | - | 0 W/m² | - |
| 1778026785 | 20.56° C | 49% | 1007.5 hPa | 0 mm | - | 0 W/m² | - |
| 1778026485 | 21.11° C | 49% | 1007.4 hPa | 0 mm | - | 0 W/m² | - |
| 1778026185 | 21.11° C | 48% | 1007.4 hPa | 0 mm | - | 0 W/m² | - |
| 1778024083 | 21.67° C | 47% | 1007.2 hPa | 0 mm | - | 12 W/m² | - |
| 1778023182 | 22.22° C | 46% | 1007.1 hPa | 0 mm | - | 11 W/m² | - |
| 1778021981 | 22.78° C | 41% | 1007 hPa | 0 mm | - | 9 W/m² | - |
| 1778021080 | 22.78° C | 41% | 1006.9 hPa | 0 mm | - | 18 W/m² | - |
| 1778019879 | 22.78° C | 40% | 1006.8 hPa | 0 mm | - | 65 W/m² | - |
| 1778019278 | 22.78° C | 41% | 1006.7 hPa | 0 mm | - | 49 W/m² | - |
| 1778018978 | 22.78° C | 41% | 1006.7 hPa | 0 mm | - | 67 W/m² | - |
| 1778016876 | 22.78° C | 42% | 1006.7 hPa | 0 mm | - | 90 W/m² | - |
| 1778015975 | 23.33° C | 44% | 1006.5 hPa | 0 mm | - | 91 W/m² | - |
| 1778014774 | 24.44° C | 40% | 1006.4 hPa | 0 mm | - | 197 W/m² | - |
| 1778013873 | 24.44° C | 39% | 1006.4 hPa | 0 mm | - | 336 W/m² | - |
| 1778011172 | 24.44° C | 38% | 1006.4 hPa | 0 mm | - | 663 W/m² | - |
| 1778010870 | 24.44° C | 38% | 1006.6 hPa | 0 mm | - | 248 W/m² | - |
| 1778009971 | 25° C | 39% | 1006.7 hPa | 0 mm | - | 744 W/m² | - |
| 1778009669 | 24.44° C | 39% | 1007 hPa | 0 mm | - | 758 W/m² | - |
| 1778008768 | 23.89° C | 38% | 1007.2 hPa | 0 mm | - | 213 W/m² | - |
| 1778007567 | 24.44° C | 40% | 1007.3 hPa | 0 mm | - | 875 W/m² | - |
* Rain latest hour (hover to see other rain measurements)
** Current wind speed in m/s (hover to see current wind gust speed)